createdAt,value
2019-04-10T00:00:23.145Z,8.83
2019-04-10T00:02:51.858Z,9.03
2019-04-10T00:05:20.477Z,10.40
2019-04-10T00:07:50.022Z,9.67
2019-04-10T00:10:19.390Z,9.63
2019-04-10T00:12:48.096Z,9.27
2019-04-10T00:15:18.232Z,8.67
2019-04-10T00:17:47.238Z,8.60
2019-04-10T00:20:16.310Z,7.30
2019-04-10T00:22:44.958Z,7.80
2019-04-10T00:25:14.910Z,8.33
2019-04-10T00:27:43.567Z,7.97
2019-04-10T00:30:13.202Z,6.77
2019-04-10T00:32:41.931Z,7.20
2019-04-10T00:35:10.813Z,7.37
2019-04-10T00:37:39.541Z,7.43
2019-04-10T00:40:08.822Z,6.70
2019-04-10T00:42:37.546Z,7.53
2019-04-10T00:45:09.177Z,7.53
2019-04-10T00:47:37.786Z,6.27
2019-04-10T00:50:06.692Z,6.70
2019-04-10T00:52:35.331Z,6.30
2019-04-10T00:55:05.647Z,6.10
2019-04-10T00:57:34.377Z,5.57
2019-04-10T01:00:03.001Z,5.90
2019-04-10T01:02:32.375Z,6.33
2019-04-10T01:05:01.069Z,7.60
2019-04-10T01:07:37.592Z,7.67
2019-04-10T01:10:00.148Z,8.10
2019-04-10T01:12:28.775Z,7.53
2019-04-10T01:14:58.175Z,8.57
2019-04-10T01:17:26.942Z,7.33
2019-04-10T01:19:56.519Z,7.70
2019-04-10T01:22:25.376Z,8.90
2019-04-10T01:24:54.433Z,9.47
2019-04-10T01:27:23.665Z,8.50
2019-04-10T01:29:52.357Z,8.90
2019-04-10T01:32:21.114Z,8.67
2019-04-10T01:34:49.777Z,7.53
2019-04-10T01:37:18.746Z,7.63
2019-04-10T01:39:48.555Z,7.53
2019-04-10T01:42:17.232Z,7.27
2019-04-10T01:44:46.767Z,9.47
2019-04-10T01:47:15.720Z,7.87
2019-04-10T01:49:44.366Z,9.07
2019-04-10T01:52:13.050Z,7.60
2019-04-10T01:54:44.567Z,7.73
2019-04-10T01:57:13.118Z,7.03
2019-04-10T01:59:42.424Z,7.03
2019-04-10T02:02:31.616Z,8.00
2019-04-10T02:05:00.656Z,7.03
2019-04-10T02:07:29.924Z,8.03
2019-04-10T02:09:59.509Z,7.37
2019-04-10T02:12:28.489Z,8.20
2019-04-10T02:14:57.114Z,7.83
2019-04-10T02:17:25.770Z,7.17
2019-04-10T02:19:54.632Z,7.00
2019-04-10T02:22:24.405Z,7.00
2019-04-10T02:24:53.536Z,6.47
2019-04-10T02:27:22.481Z,6.63
2019-04-10T02:29:52.251Z,6.57
2019-04-10T02:32:21.256Z,5.57
2019-04-10T02:34:50.691Z,6.53
2019-04-10T02:37:19.455Z,6.30
2019-04-10T02:39:52.184Z,6.77
2019-04-10T02:42:18.787Z,5.90
2019-04-10T02:44:48.353Z,6.50
2019-04-10T02:47:19.238Z,5.93
2019-04-10T02:49:49.276Z,6.30
2019-04-10T02:52:17.916Z,6.07
2019-04-10T02:54:46.570Z,6.40
2019-04-10T02:57:17.197Z,6.87
2019-04-10T02:59:46.970Z,6.07
2019-04-10T03:02:16.183Z,6.47
2019-04-10T03:04:44.924Z,6.40
2019-04-10T03:07:13.550Z,6.93
2019-04-10T03:09:56.291Z,6.73
2019-04-10T03:12:14.364Z,6.97
2019-04-10T03:14:45.227Z,6.50
2019-04-10T03:17:13.324Z,6.23
2019-04-10T03:19:41.948Z,6.57
2019-04-10T03:22:10.611Z,6.63
2019-04-10T03:24:40.131Z,6.97
2019-04-10T03:27:08.772Z,6.23
2019-04-10T03:29:38.003Z,6.00
2019-04-10T03:32:28.508Z,5.47
2019-04-10T03:34:56.723Z,6.37
2019-04-10T03:37:26.439Z,5.97
2019-04-10T03:39:55.296Z,6.20
2019-04-10T03:42:23.909Z,7.07
2019-04-10T03:44:52.527Z,7.27
2019-04-10T03:47:21.335Z,5.83
2019-04-10T03:49:49.963Z,6.60
2019-04-10T03:52:19.032Z,6.57
2019-04-10T03:54:48.145Z,5.70
2019-04-10T03:57:16.830Z,6.03
2019-04-10T03:59:45.544Z,6.13
2019-04-10T04:02:14.206Z,6.40
2019-04-10T04:04:43.815Z,7.20
2019-04-10T04:07:13.393Z,6.93
2019-04-10T04:09:42.089Z,6.73
2019-04-10T04:12:10.718Z,5.80
2019-04-10T04:14:39.395Z,5.60
2019-04-10T04:17:08.181Z,6.73
2019-04-10T04:19:37.907Z,5.90
2019-04-10T04:22:06.690Z,6.50
2019-04-10T04:24:35.751Z,6.53
2019-04-10T04:27:04.811Z,5.57
2019-04-10T04:29:34.426Z,6.87
2019-04-10T04:32:03.122Z,6.13
2019-04-10T04:34:31.736Z,7.43
2019-04-10T04:37:00.453Z,6.87
2019-04-10T04:39:30.494Z,5.90
2019-04-10T04:41:59.496Z,6.43
2019-04-10T04:44:29.206Z,6.23
2019-04-10T04:46:58.895Z,6.83
2019-04-10T04:49:28.377Z,6.93
2019-04-10T04:51:58.133Z,7.60
2019-04-10T04:54:26.833Z,7.47
2019-04-10T04:56:56.154Z,6.27
2019-04-10T04:59:24.758Z,6.90
2019-04-10T05:01:53.507Z,7.80
2019-04-10T05:04:22.919Z,7.03
2019-04-10T05:06:52.144Z,7.57
2019-04-10T05:09:29.859Z,7.27
2019-04-10T05:11:51.152Z,7.10
2019-04-10T05:14:19.784Z,7.10
2019-04-10T05:16:48.451Z,7.00
2019-04-10T05:19:17.403Z,7.27
2019-04-10T05:21:45.994Z,7.50
2019-04-10T05:24:15.700Z,6.70
2019-04-10T05:26:44.842Z,7.13
2019-04-10T05:29:13.480Z,8.43
2019-04-10T05:31:42.666Z,8.77
2019-04-10T05:34:11.508Z,9.90
2019-04-10T05:36:40.160Z,8.33
2019-04-10T05:39:08.826Z,8.70
2019-04-10T05:41:37.885Z,10.10
2019-04-10T05:44:07.446Z,9.83
2019-04-10T05:46:36.753Z,11.40
2019-04-10T05:49:06.664Z,10.57
2019-04-10T05:51:35.411Z,11.27
2019-04-10T05:54:04.063Z,10.83
2019-04-10T05:56:32.692Z,8.43
2019-04-10T05:59:01.321Z,8.67
2019-04-10T06:01:35.480Z,8.30
2019-04-10T06:04:00.915Z,8.83
2019-04-10T06:06:30.626Z,8.17
2019-04-10T06:09:00.456Z,7.17
2019-04-10T06:11:29.105Z,7.13
2019-04-10T06:13:59.049Z,7.77
2019-04-10T06:16:28.179Z,7.80
2019-04-10T06:18:57.601Z,7.57
2019-04-10T06:21:27.278Z,8.13
2019-04-10T06:23:56.844Z,8.57
2019-04-10T06:26:28.043Z,8.80
2019-04-10T06:28:56.864Z,7.97
2019-04-10T06:31:25.574Z,7.17
2019-04-10T06:33:54.196Z,8.20
2019-04-10T06:36:22.827Z,7.97
2019-04-10T06:38:51.570Z,7.50
2019-04-10T06:41:20.205Z,8.47
2019-04-10T06:43:49.655Z,8.97
2019-04-10T06:46:18.371Z,9.20
2019-04-10T07:01:15.230Z,11.27
2019-04-10T07:03:51.877Z,9.60
2019-04-10T07:06:19.026Z,9.00
2019-04-10T07:08:49.858Z,9.50
2019-04-10T07:11:18.090Z,9.13
2019-04-10T07:13:45.324Z,9.60
2019-04-10T07:16:14.003Z,9.03
2019-04-10T07:18:45.890Z,8.17
2019-04-10T07:21:12.970Z,8.87
2019-04-10T07:23:42.737Z,8.07
2019-04-10T07:26:14.499Z,9.60
2019-04-10T07:28:44.909Z,9.77
2019-04-10T07:31:13.033Z,10.00
2019-04-10T07:33:42.580Z,10.80
2019-04-10T07:36:12.857Z,9.87
2019-04-10T07:38:41.617Z,9.63
2019-04-10T07:41:17.091Z,9.17
2019-04-10T07:43:40.700Z,8.43
2019-04-10T07:46:09.390Z,9.77
2019-04-10T07:48:38.026Z,8.53
2019-04-10T07:51:07.009Z,9.10
2019-04-10T07:53:35.696Z,9.73
2019-04-10T07:56:07.597Z,8.60
2019-04-10T07:58:35.528Z,9.80
2019-04-10T08:01:05.232Z,8.50
2019-04-10T08:03:33.801Z,9.30
2019-04-10T08:06:02.475Z,9.53
2019-04-10T08:08:31.160Z,9.90
2019-04-10T08:10:59.790Z,7.73
2019-04-10T08:13:28.906Z,8.70
2019-04-10T08:15:58.485Z,8.77
2019-04-10T08:18:27.618Z,8.50
2019-04-10T08:20:57.288Z,8.07
2019-04-10T08:23:26.063Z,7.90
2019-04-10T08:25:55.882Z,8.53
2019-04-10T08:28:24.579Z,9.53
2019-04-10T08:30:53.242Z,9.13
2019-04-10T08:33:21.899Z,9.83
2019-04-10T08:35:50.565Z,11.27
2019-04-10T08:38:19.256Z,9.93
2019-04-10T08:40:48.232Z,9.30
2019-04-10T08:43:17.044Z,9.03
2019-04-10T08:45:49.982Z,9.90
2019-04-10T08:48:16.045Z,11.80
2019-04-10T08:50:44.672Z,11.57
2019-04-10T08:53:13.853Z,9.70
2019-04-10T08:55:42.550Z,9.57
2019-04-10T08:58:11.467Z,9.50
2019-04-10T09:00:40.702Z,9.63
2019-04-10T09:03:09.396Z,9.77
2019-04-10T09:05:38.024Z,9.70
2019-04-10T09:08:06.697Z,10.00
2019-04-10T09:10:36.566Z,9.33
2019-04-10T09:13:06.235Z,10.27
2019-04-10T09:15:36.055Z,11.33
2019-04-10T09:18:06.008Z,16.93
2019-04-10T09:20:35.114Z,16.40
2019-04-10T09:23:28.598Z,11.23
2019-04-10T09:25:35.271Z,9.73
2019-04-10T09:28:04.327Z,9.73
2019-04-10T09:30:33.934Z,10.77
2019-04-10T09:33:15.969Z,9.53
2019-04-10T09:35:33.404Z,10.87
2019-04-10T09:38:02.216Z,10.23
2019-04-10T09:40:32.006Z,11.13
2019-04-10T09:43:00.819Z,11.27
2019-04-10T09:45:30.540Z,11.30
2019-04-10T09:47:59.985Z,10.63
2019-04-10T09:50:28.675Z,10.53
2019-04-10T09:52:57.354Z,10.57
2019-04-10T09:55:25.977Z,10.03
2019-04-10T09:57:54.613Z,10.00
2019-04-10T10:00:24.053Z,8.60
2019-04-10T10:02:52.974Z,8.37
2019-04-10T10:05:22.335Z,9.50
2019-04-10T10:07:51.159Z,9.93
2019-04-10T10:10:20.665Z,9.50
2019-04-10T10:12:50.453Z,9.13
2019-04-10T10:15:19.239Z,8.77
2019-04-10T10:17:48.826Z,8.63
2019-04-10T10:20:17.777Z,9.10
2019-04-10T10:22:47.477Z,8.97
2019-04-10T10:25:17.412Z,12.53
2019-04-10T10:27:46.867Z,12.23
2019-04-10T10:30:15.820Z,11.73
2019-04-10T10:32:45.539Z,8.80
2019-04-10T10:35:14.682Z,10.53
2019-04-10T10:37:43.402Z,9.30
2019-04-10T10:40:12.628Z,8.73
2019-04-10T10:42:41.562Z,9.67
2019-04-10T10:45:10.760Z,12.40
2019-04-10T10:47:40.367Z,9.27
2019-04-10T10:50:09.783Z,8.60
2019-04-10T10:52:39.649Z,9.83
2019-04-10T10:55:09.737Z,9.00
2019-04-10T10:57:39.455Z,8.57
2019-04-10T11:00:11.469Z,8.87
2019-04-10T11:02:38.996Z,9.93
2019-04-10T11:05:08.806Z,8.50
2019-04-10T11:07:38.897Z,10.67
2019-04-10T11:10:08.489Z,9.63
2019-04-10T11:12:38.422Z,9.37
2019-04-10T11:15:07.848Z,8.17
2019-04-10T11:17:38.460Z,9.07
2019-04-10T11:20:10.048Z,8.17
2019-04-10T11:22:39.735Z,8.63
2019-04-10T11:25:08.742Z,9.60
2019-04-10T11:27:37.400Z,8.70
2019-04-10T11:30:08.398Z,10.93
2019-04-10T11:32:38.240Z,8.50
2019-04-10T11:35:07.767Z,8.60
2019-04-10T11:37:43.831Z,9.27
2019-04-10T11:40:08.833Z,7.10
2019-04-10T11:42:39.759Z,9.10
2019-04-10T11:45:10.676Z,7.93
2019-04-10T11:47:39.590Z,9.10
2019-04-10T11:50:13.506Z,8.67
2019-04-10T11:52:46.601Z,9.00
2019-04-10T11:55:15.964Z,9.20
2019-04-10T11:57:41.961Z,9.20
2019-04-10T12:02:47.030Z,8.03
2019-04-10T12:05:18.513Z,8.87
2019-04-10T12:08:27.699Z,8.50
2019-04-10T12:12:44.061Z,9.50
2019-04-10T12:15:12.688Z,9.70
2019-04-10T12:17:42.929Z,8.60
2019-04-10T12:20:13.096Z,8.47
2019-04-10T12:22:41.794Z,8.40
2019-04-10T12:25:12.317Z,9.27
2019-04-10T12:27:41.219Z,9.50
2019-04-10T12:30:13.424Z,8.73
2019-04-10T12:32:43.079Z,7.77
2019-04-10T12:35:11.710Z,7.13
2019-04-10T12:37:41.242Z,7.63
2019-04-10T12:40:10.146Z,7.27
2019-04-10T12:42:38.820Z,8.13
2019-04-10T12:45:08.291Z,7.73
2019-04-10T12:47:37.733Z,7.33
2019-04-10T12:50:08.191Z,7.07
2019-04-10T12:52:36.841Z,6.80
2019-04-10T12:55:06.369Z,7.47
2019-04-10T12:57:35.039Z,6.57
2019-04-10T13:00:06.750Z,6.77
2019-04-10T13:02:36.463Z,7.33
2019-04-10T13:05:07.241Z,6.90
2019-04-10T13:07:36.008Z,6.73
2019-04-10T13:10:08.707Z,7.23
2019-04-10T13:12:37.695Z,6.83
2019-04-10T13:15:08.159Z,7.00
2019-04-10T13:17:36.816Z,6.77
2019-04-10T13:20:11.209Z,6.63
2019-04-10T13:22:40.206Z,5.93
2019-04-10T13:25:10.264Z,7.03
2019-04-10T13:27:39.142Z,7.03
2019-04-10T13:30:12.134Z,6.80
2019-04-10T13:32:40.439Z,6.63
2019-04-10T13:35:10.352Z,7.60
2019-04-10T13:37:38.992Z,7.37
2019-04-10T13:40:07.882Z,6.73
2019-04-10T13:42:37.146Z,6.73
2019-04-10T13:45:07.987Z,7.37
2019-04-10T13:47:36.711Z,7.93
2019-04-10T13:50:07.193Z,9.47
2019-04-10T13:52:38.505Z,6.17
2019-04-10T13:55:08.860Z,6.87
2019-04-10T13:57:39.192Z,6.77
2019-04-10T14:00:09.707Z,9.57
2019-04-10T14:02:39.514Z,7.27
2019-04-10T14:05:11.504Z,7.67
2019-04-10T14:07:40.338Z,7.10
2019-04-10T14:10:10.391Z,7.23
2019-04-10T14:12:39.214Z,7.47
2019-04-10T14:15:08.158Z,10.40
2019-04-10T14:17:37.616Z,8.13
2019-04-10T14:20:07.046Z,12.27
2019-04-10T14:22:37.902Z,15.50
2019-04-10T14:25:09.624Z,31.33
2019-04-10T14:27:38.558Z,17.67
2019-04-10T14:30:11.306Z,18.27
2019-04-10T14:32:40.072Z,8.80
2019-04-10T14:35:09.959Z,11.00
2019-04-10T14:37:38.708Z,7.60
2019-04-10T14:40:10.241Z,13.70
2019-04-10T14:42:38.881Z,12.83
2019-04-10T14:45:08.902Z,9.50
2019-04-10T14:47:37.725Z,7.47
2019-04-10T14:50:07.543Z,8.60
2019-04-10T14:52:37.127Z,9.57
2019-04-10T14:55:06.238Z,7.40
2019-04-10T14:57:35.091Z,6.80
2019-04-10T15:00:06.398Z,7.07
2019-04-10T15:02:35.137Z,8.30
2019-04-10T15:05:05.745Z,9.97
2019-04-10T15:07:35.200Z,9.27
2019-04-10T15:10:04.321Z,12.53
2019-04-10T15:12:32.953Z,10.47
2019-04-10T15:15:01.776Z,7.57
2019-04-10T15:17:30.844Z,9.20
2019-04-10T15:20:00.651Z,8.80
2019-04-10T15:22:29.330Z,9.87
2019-04-10T15:24:57.969Z,7.27
2019-04-10T15:27:27.117Z,9.83
2019-04-10T15:29:56.784Z,9.53
2019-04-10T15:32:25.464Z,10.80
2019-04-10T15:34:54.166Z,7.53
2019-04-10T15:37:22.906Z,9.13
2019-04-10T15:39:51.873Z,11.87
2019-04-10T15:42:21.718Z,14.40
2019-04-10T15:44:50.379Z,16.17
2019-04-10T15:47:22.320Z,14.17
2019-04-10T15:49:49.455Z,9.80
2019-04-10T15:52:18.156Z,10.03
2019-04-10T15:54:47.880Z,9.53
2019-04-10T15:57:16.530Z,8.00
2019-04-10T15:59:46.293Z,7.67
2019-04-10T16:02:15.394Z,10.37
2019-04-10T16:04:44.439Z,10.37
2019-04-10T16:07:14.090Z,9.27
2019-04-10T16:09:47.392Z,9.07
2019-04-10T16:12:14.804Z,9.50
2019-04-10T16:14:44.453Z,10.93
2019-04-10T16:17:26.950Z,8.97
2019-04-10T16:20:00.156Z,8.07
2019-04-10T16:22:31.211Z,9.60
2019-04-10T16:25:01.605Z,9.20
